sensor_id;sensor_type;location;lat;lon;timestamp;P1;P2;P0
76238;PMS7003;65043;48.392;-4.472;2024-02-21T00:01:15;1.50;1.00;0.00
76238;PMS7003;65043;48.392;-4.472;2024-02-21T00:03:41;2.75;1.00;0.50
76238;PMS7003;65043;48.392;-4.472;2024-02-21T00:06:07;4.25;0.75;0.75
76238;PMS7003;65043;48.392;-4.472;2024-02-21T00:08:33;3.00;1.25;1.00
76238;PMS7003;65043;48.392;-4.472;2024-02-21T00:10:59;1.75;1.75;1.00
76238;PMS7003;65043;48.392;-4.472;2024-02-21T00:13:24;2.75;1.75;0.25
76238;PMS7003;65043;48.392;-4.472;2024-02-21T00:15:49;3.00;1.25;1.00
76238;PMS7003;65043;48.392;-4.472;2024-02-21T00:18:15;2.00;2.00;1.25
76238;PMS7003;65043;48.392;-4.472;2024-02-21T00:20:40;1.00;1.00;1.00
76238;PMS7003;65043;48.392;-4.472;2024-02-21T00:23:06;4.00;1.00;0.50
76238;PMS7003;65043;48.392;-4.472;2024-02-21T00:25:33;2.75;2.00;0.00
76238;PMS7003;65043;48.392;-4.472;2024-02-21T00:27:59;1.00;1.00;0.00
76238;PMS7003;65043;48.392;-4.472;2024-02-21T00:30:27;6.25;3.25;1.00
76238;PMS7003;65043;48.392;-4.472;2024-02-21T00:32:55;6.50;2.75;1.00
76238;PMS7003;65043;48.392;-4.472;2024-02-21T00:35:20;1.50;1.50;1.50
76238;PMS7003;65043;48.392;-4.472;2024-02-21T00:37:48;3.25;2.00;1.00
76238;PMS7003;65043;48.392;-4.472;2024-02-21T00:40:16;2.00;2.00;0.25
76238;PMS7003;65043;48.392;-4.472;2024-02-21T00:42:45;0.75;0.75;0.00
76238;PMS7003;65043;48.392;-4.472;2024-02-21T00:45:11;3.25;1.00;0.75
76238;PMS7003;65043;48.392;-4.472;2024-02-21T00:47:36;2.00;1.00;1.00
76238;PMS7003;65043;48.392;-4.472;2024-02-21T00:50:02;1.00;1.00;0.00
76238;PMS7003;65043;48.392;-4.472;2024-02-21T00:52:27;4.00;2.00;1.00
76238;PMS7003;65043;48.392;-4.472;2024-02-21T00:54:53;2.50;2.00;0.50
76238;PMS7003;65043;48.392;-4.472;2024-02-21T00:57:18;3.00;3.00;1.00
76238;PMS7003;65043;48.392;-4.472;2024-02-21T00:59:44;3.00;2.25;1.00
76238;PMS7003;65043;48.392;-4.472;2024-02-21T01:02:10;2.00;1.75;1.00
76238;PMS7003;65043;48.392;-4.472;2024-02-21T01:04:35;3.50;1.00;0.25
76238;PMS7003;65043;48.392;-4.472;2024-02-21T01:07:01;6.25;2.50;1.00
76238;PMS7003;65043;48.392;-4.472;2024-02-21T01:09:27;2.00;2.00;1.00
76238;PMS7003;65043;48.392;-4.472;2024-02-21T01:11:52;2.00;1.00;1.00
76238;PMS7003;65043;48.392;-4.472;2024-02-21T01:14:18;3.75;2.00;1.00
76238;PMS7003;65043;48.392;-4.472;2024-02-21T01:16:44;1.25;1.25;0.25
76238;PMS7003;65043;48.392;-4.472;2024-02-21T01:19:16;4.00;2.00;1.25
76238;PMS7003;65043;48.392;-4.472;2024-02-21T01:21:42;1.50;1.50;1.00
76238;PMS7003;65043;48.392;-4.472;2024-02-21T01:24:08;3.75;3.00;2.00
76238;PMS7003;65043;48.392;-4.472;2024-02-21T01:26:33;2.00;2.00;0.00
76238;PMS7003;65043;48.392;-4.472;2024-02-21T01:29:01;2.00;2.00;1.00
76238;PMS7003;65043;48.392;-4.472;2024-02-21T01:31:27;2.50;2.00;1.00
76238;PMS7003;65043;48.392;-4.472;2024-02-21T01:33:52;5.00;2.00;1.00
76238;PMS7003;65043;48.392;-4.472;2024-02-21T01:36:20;3.75;2.25;1.00
76238;PMS7003;65043;48.392;-4.472;2024-02-21T01:38:45;3.75;2.00;1.00
76238;PMS7003;65043;48.392;-4.472;2024-02-21T01:41:14;2.25;2.00;1.00
76238;PMS7003;65043;48.392;-4.472;2024-02-21T01:43:41;4.00;4.00;1.00
76238;PMS7003;65043;48.392;-4.472;2024-02-21T01:46:07;3.50;1.25;1.00
76238;PMS7003;65043;48.392;-4.472;2024-02-21T01:48:33;2.00;2.00;0.75
76238;PMS7003;65043;48.392;-4.472;2024-02-21T01:51:00;1.50;1.50;1.00
76238;PMS7003;65043;48.392;-4.472;2024-02-21T01:53:36;3.25;2.50;1.00
76238;PMS7003;65043;48.392;-4.472;2024-02-21T01:56:05;2.00;2.00;1.00
76238;PMS7003;65043;48.392;-4.472;2024-02-21T01:58:32;5.75;2.25;1.00
76238;PMS7003;65043;48.392;-4.472;2024-02-21T02:01:02;3.50;2.00;0.75
76238;PMS7003;65043;48.392;-4.472;2024-02-21T02:03:27;2.75;1.50;1.00
76238;PMS7003;65043;48.392;-4.472;2024-02-21T02:06:04;3.75;1.75;1.00
76238;PMS7003;65043;48.392;-4.472;2024-02-21T02:08:31;0.50;0.50;0.50
76238;PMS7003;65043;48.392;-4.472;2024-02-21T02:10:57;3.00;2.00;1.00
76238;PMS7003;65043;48.392;-4.472;2024-02-21T02:13:26;1.50;0.75;0.50
76238;PMS7003;65043;48.392;-4.472;2024-02-21T02:15:59;3.25;1.75;1.00
76238;PMS7003;65043;48.392;-4.472;2024-02-21T02:18:25;5.00;2.00;1.00
76238;PMS7003;65043;48.392;-4.472;2024-02-21T02:20:51;2.00;1.25;1.00
76238;PMS7003;65043;48.392;-4.472;2024-02-21T02:23:30;4.00;2.25;0.50
76238;PMS7003;65043;48.392;-4.472;2024-02-21T02:25:59;1.75;1.25;1.00
76238;PMS7003;65043;48.392;-4.472;2024-02-21T02:28:28;1.00;0.50;0.50
76238;PMS7003;65043;48.392;-4.472;2024-02-21T02:30:53;2.25;1.50;0.25
76238;PMS7003;65043;48.392;-4.472;2024-02-21T02:33:19;5.75;1.00;1.00
76238;PMS7003;65043;48.392;-4.472;2024-02-21T02:35:45;3.00;2.00;1.00
76238;PMS7003;65043;48.392;-4.472;2024-02-21T02:38:20;1.50;1.25;1.00
76238;PMS7003;65043;48.392;-4.472;2024-02-21T02:40:45;1.00;1.00;0.25
76238;PMS7003;65043;48.392;-4.472;2024-02-21T02:43:13;3.00;1.00;1.00
76238;PMS7003;65043;48.392;-4.472;2024-02-21T02:45:41;3.25;1.75;1.00
76238;PMS7003;65043;48.392;-4.472;2024-02-21T02:48:07;3.75;1.00;0.25
76238;PMS7003;65043;48.392;-4.472;2024-02-21T02:50:35;5.25;2.00;1.00
76238;PMS7003;65043;48.392;-4.472;2024-02-21T02:53:00;1.75;1.75;1.00
76238;PMS7003;65043;48.392;-4.472;2024-02-21T02:55:28;5.00;4.00;1.00
76238;PMS7003;65043;48.392;-4.472;2024-02-21T02:57:54;2.25;1.00;0.50
76238;PMS7003;65043;48.392;-4.472;2024-02-21T03:00:19;1.75;1.00;0.50
76238;PMS7003;65043;48.392;-4.472;2024-02-21T03:02:45;1.00;1.00;1.00
76238;PMS7003;65043;48.392;-4.472;2024-02-21T03:05:16;3.75;2.25;0.75
76238;PMS7003;65043;48.392;-4.472;2024-02-21T03:07:43;1.00;1.00;0.75
76238;PMS7003;65043;48.392;-4.472;2024-02-21T03:10:16;2.25;2.00;0.25
76238;PMS7003;65043;48.392;-4.472;2024-02-21T03:12:42;7.25;2.00;1.00
76238;PMS7003;65043;48.392;-4.472;2024-02-21T03:15:11;1.50;1.50;0.00
76238;PMS7003;65043;48.392;-4.472;2024-02-21T03:17:37;1.75;1.75;0.00
76238;PMS7003;65043;48.392;-4.472;2024-02-21T03:20:05;2.75;1.00;0.00
76238;PMS7003;65043;48.392;-4.472;2024-02-21T03:22:35;2.00;2.00;0.25
76238;PMS7003;65043;48.392;-4.472;2024-02-21T03:25:03;2.75;1.50;0.50
76238;PMS7003;65043;48.392;-4.472;2024-02-21T03:27:32;3.75;2.00;1.00
76238;PMS7003;65043;48.392;-4.472;2024-02-21T03:30:00;1.75;1.00;0.50
76238;PMS7003;65043;48.392;-4.472;2024-02-21T03:32:25;2.00;2.00;1.00
76238;PMS7003;65043;48.392;-4.472;2024-02-21T03:34:58;3.50;1.00;1.00
76238;PMS7003;65043;48.392;-4.472;2024-02-21T03:37:26;4.75;1.00;1.00
76238;PMS7003;65043;48.392;-4.472;2024-02-21T03:39:59;2.25;2.00;1.00
76238;PMS7003;65043;48.392;-4.472;2024-02-21T03:42:27;2.25;2.00;1.00
76238;PMS7003;65043;48.392;-4.472;2024-02-21T03:44:54;2.00;2.00;0.00
76238;PMS7003;65043;48.392;-4.472;2024-02-21T03:47:20;4.00;2.75;1.00
76238;PMS7003;65043;48.392;-4.472;2024-02-21T03:49:46;1.00;1.00;1.00
76238;PMS7003;65043;48.392;-4.472;2024-02-21T03:52:13;3.25;1.75;0.75
76238;PMS7003;65043;48.392;-4.472;2024-02-21T03:54:39;2.50;1.75;1.00
76238;PMS7003;65043;48.392;-4.472;2024-02-21T03:57:07;6.00;1.25;1.00
76238;PMS7003;65043;48.392;-4.472;2024-02-21T03:59:33;2.50;1.00;0.00
76238;PMS7003;65043;48.392;-4.472;2024-02-21T04:01:58;4.00;2.25;1.00
76238;PMS7003;65043;48.392;-4.472;2024-02-21T04:04:24;1.50;1.25;1.00
76238;PMS7003;65043;48.392;-4.472;2024-02-21T04:06:50;1.00;1.00;0.00
76238;PMS7003;65043;48.392;-4.472;2024-02-21T04:09:16;4.50;2.75;1.00
76238;PMS7003;65043;48.392;-4.472;2024-02-21T04:11:42;2.00;2.00;1.00
76238;PMS7003;65043;48.392;-4.472;2024-02-21T04:14:07;4.25;1.75;0.00
76238;PMS7003;65043;48.392;-4.472;2024-02-21T04:16:34;3.00;2.00;0.00
76238;PMS7003;65043;48.392;-4.472;2024-02-21T04:19:00;4.75;2.50;2.00
76238;PMS7003;65043;48.392;-4.472;2024-02-21T04:21:33;2.25;2.25;1.00
76238;PMS7003;65043;48.392;-4.472;2024-02-21T04:23:58;2.50;2.50;1.50
76238;PMS7003;65043;48.392;-4.472;2024-02-21T04:26:26;5.00;2.00;1.00
76238;PMS7003;65043;48.392;-4.472;2024-02-21T04:28:52;1.75;1.00;0.00
76238;PMS7003;65043;48.392;-4.472;2024-02-21T04:31:17;2.00;2.00;0.00
76238;PMS7003;65043;48.392;-4.472;2024-02-21T04:33:43;1.75;1.75;1.00
76238;PMS7003;65043;48.392;-4.472;2024-02-21T04:36:10;3.00;1.00;0.50
76238;PMS7003;65043;48.392;-4.472;2024-02-21T04:38:36;5.50;3.00;1.00
76238;PMS7003;65043;48.392;-4.472;2024-02-21T04:41:10;2.50;2.00;1.00
76238;PMS7003;65043;48.392;-4.472;2024-02-21T04:43:36;4.50;3.50;1.00
76238;PMS7003;65043;48.392;-4.472;2024-02-21T04:46:01;2.75;2.00;1.25
76238;PMS7003;65043;48.392;-4.472;2024-02-21T04:48:27;2.75;2.75;1.00
76238;PMS7003;65043;48.392;-4.472;2024-02-21T04:50:52;5.75;3.25;1.00
76238;PMS7003;65043;48.392;-4.472;2024-02-21T04:53:18;2.50;2.25;1.00
76238;PMS7003;65043;48.392;-4.472;2024-02-21T04:55:43;2.00;2.00;1.75
76238;PMS7003;65043;48.392;-4.472;2024-02-21T04:58:11;4.00;3.25;2.00
76238;PMS7003;65043;48.392;-4.472;2024-02-21T05:00:39;4.00;3.00;1.00
76238;PMS7003;65043;48.392;-4.472;2024-02-21T05:03:05;3.00;2.25;1.00
76238;PMS7003;65043;48.392;-4.472;2024-02-21T05:05:33;3.00;2.50;1.00
76238;PMS7003;65043;48.392;-4.472;2024-02-21T05:07:58;3.25;3.00;1.75
76238;PMS7003;65043;48.392;-4.472;2024-02-21T05:10:24;8.00;4.75;1.00
76238;PMS7003;65043;48.392;-4.472;2024-02-21T05:12:49;3.00;3.00;1.00
76238;PMS7003;65043;48.392;-4.472;2024-02-21T05:15:15;4.00;3.00;1.00
76238;PMS7003;65043;48.392;-4.472;2024-02-21T05:17:40;4.25;3.00;2.00
76238;PMS7003;65043;48.392;-4.472;2024-02-21T05:20:08;2.50;2.00;1.00
76238;PMS7003;65043;48.392;-4.472;2024-02-21T05:22:34;4.50;2.25;1.25
76238;PMS7003;65043;48.392;-4.472;2024-02-21T05:24:59;5.50;4.00;1.75
76238;PMS7003;65043;48.392;-4.472;2024-02-21T05:27:25;2.00;2.00;1.00
76238;PMS7003;65043;48.392;-4.472;2024-02-21T05:29:50;4.00;3.00;0.25
76238;PMS7003;65043;48.392;-4.472;2024-02-21T05:32:16;1.00;1.00;0.25
76238;PMS7003;65043;48.392;-4.472;2024-02-21T05:34:41;6.00;2.00;1.00
76238;PMS7003;65043;48.392;-4.472;2024-02-21T05:37:07;2.75;1.50;0.50
76238;PMS7003;65043;48.392;-4.472;2024-02-21T05:39:40;4.50;3.25;1.00
76238;PMS7003;65043;48.392;-4.472;2024-02-21T05:42:06;2.75;2.00;1.00
76238;PMS7003;65043;48.392;-4.472;2024-02-21T05:44:31;4.25;3.75;1.00
76238;PMS7003;65043;48.392;-4.472;2024-02-21T05:47:04;7.50;1.75;1.00
76238;PMS7003;65043;48.392;-4.472;2024-02-21T05:49:40;4.75;1.00;0.75
76238;PMS7003;65043;48.392;-4.472;2024-02-21T05:52:06;5.75;2.00;1.00
76238;PMS7003;65043;48.392;-4.472;2024-02-21T05:54:31;2.50;2.00;1.00
76238;PMS7003;65043;48.392;-4.472;2024-02-21T05:56:57;3.75;3.00;1.00
76238;PMS7003;65043;48.392;-4.472;2024-02-21T05:59:25;3.00;1.75;0.75
76238;PMS7003;65043;48.392;-4.472;2024-02-21T06:01:57;4.25;1.50;1.00
76238;PMS7003;65043;48.392;-4.472;2024-02-21T06:04:28;6.75;2.00;1.00
76238;PMS7003;65043;48.392;-4.472;2024-02-21T06:06:55;2.75;1.25;0.75
76238;PMS7003;65043;48.392;-4.472;2024-02-21T06:09:23;2.00;2.00;1.50
76238;PMS7003;65043;48.392;-4.472;2024-02-21T06:11:49;2.25;1.50;1.00
76238;PMS7003;65043;48.392;-4.472;2024-02-21T06:14:14;3.75;2.25;1.00
76238;PMS7003;65043;48.392;-4.472;2024-02-21T06:16:40;7.75;1.75;1.00
76238;PMS7003;65043;48.392;-4.472;2024-02-21T06:19:12;3.25;2.00;0.25
76238;PMS7003;65043;48.392;-4.472;2024-02-21T06:21:43;2.00;2.00;1.00
76238;PMS7003;65043;48.392;-4.472;2024-02-21T06:24:09;5.50;2.00;1.00
76238;PMS7003;65043;48.392;-4.472;2024-02-21T06:26:34;4.75;2.75;1.00
76238;PMS7003;65043;48.392;-4.472;2024-02-21T06:29:11;2.50;1.00;1.00
76238;PMS7003;65043;48.392;-4.472;2024-02-21T06:31:40;3.75;2.00;1.00
76238;PMS7003;65043;48.392;-4.472;2024-02-21T06:34:05;1.00;1.00;0.00
76238;PMS7003;65043;48.392;-4.472;2024-02-21T06:36:31;3.00;0.00;0.00
76238;PMS7003;65043;48.392;-4.472;2024-02-21T06:38:56;1.00;1.00;0.00
76238;PMS7003;65043;48.392;-4.472;2024-02-21T06:41:22;3.50;1.75;0.50
76238;PMS7003;65043;48.392;-4.472;2024-02-21T06:43:48;1.00;1.00;1.00
76238;PMS7003;65043;48.392;-4.472;2024-02-21T06:46:26;4.00;3.75;1.00
76238;PMS7003;65043;48.392;-4.472;2024-02-21T06:48:54;5.50;3.00;1.00
76238;PMS7003;65043;48.392;-4.472;2024-02-21T06:51:21;4.50;3.00;1.00
76238;PMS7003;65043;48.392;-4.472;2024-02-21T06:53:47;3.75;3.25;1.00
76238;PMS7003;65043;48.392;-4.472;2024-02-21T06:56:13;5.25;3.25;1.00
76238;PMS7003;65043;48.392;-4.472;2024-02-21T06:58:38;7.75;2.50;1.50
76238;PMS7003;65043;48.392;-4.472;2024-02-21T07:01:04;2.75;2.00;1.00
76238;PMS7003;65043;48.392;-4.472;2024-02-21T07:03:31;5.00;2.25;1.50
76238;PMS7003;65043;48.392;-4.472;2024-02-21T07:05:57;3.50;1.75;1.00
76238;PMS7003;65043;48.392;-4.472;2024-02-21T07:08:22;4.75;3.00;1.00
76238;PMS7003;65043;48.392;-4.472;2024-02-21T07:10:48;3.75;2.00;1.50
76238;PMS7003;65043;48.392;-4.472;2024-02-21T07:13:13;2.00;2.00;1.00
76238;PMS7003;65043;48.392;-4.472;2024-02-21T07:15:40;5.00;3.00;1.00
76238;PMS7003;65043;48.392;-4.472;2024-02-21T07:18:07;2.75;2.75;1.00
76238;PMS7003;65043;48.392;-4.472;2024-02-21T07:20:33;4.25;2.00;1.00
76238;PMS7003;65043;48.392;-4.472;2024-02-21T07:22:59;6.75;4.75;1.50
76238;PMS7003;65043;48.392;-4.472;2024-02-21T07:25:24;4.00;3.00;1.25
76238;PMS7003;65043;48.392;-4.472;2024-02-21T07:27:50;6.00;3.75;1.00
76238;PMS7003;65043;48.392;-4.472;2024-02-21T07:30:16;2.00;1.00;1.00
76238;PMS7003;65043;48.392;-4.472;2024-02-21T07:32:41;4.00;2.25;1.00
76238;PMS7003;65043;48.392;-4.472;2024-02-21T07:35:07;4.25;1.00;1.00
76238;PMS7003;65043;48.392;-4.472;2024-02-21T07:37:37;2.25;2.00;1.00
76238;PMS7003;65043;48.392;-4.472;2024-02-21T07:40:06;2.25;2.25;1.00
76238;PMS7003;65043;48.392;-4.472;2024-02-21T07:42:39;4.25;3.25;1.25
76238;PMS7003;65043;48.392;-4.472;2024-02-21T07:45:08;4.25;2.75;1.00
76238;PMS7003;65043;48.392;-4.472;2024-02-21T07:47:38;2.00;2.00;1.00
76238;PMS7003;65043;48.392;-4.472;2024-02-21T07:50:04;2.00;2.00;1.00
76238;PMS7003;65043;48.392;-4.472;2024-02-21T07:52:29;68.50;53.50;36.25
76238;PMS7003;65043;48.392;-4.472;2024-02-21T07:54:55;44.50;33.50;17.75
76238;PMS7003;65043;48.392;-4.472;2024-02-21T07:57:23;21.75;20.25;13.75
76238;PMS7003;65043;48.392;-4.472;2024-02-21T07:59:48;42.25;34.75;22.50
76238;PMS7003;65043;48.392;-4.472;2024-02-21T08:02:14;27.50;21.50;15.00
76238;PMS7003;65043;48.392;-4.472;2024-02-21T08:04:45;10.75;7.75;5.50
76238;PMS7003;65043;48.392;-4.472;2024-02-21T08:26:43;4.75;3.25;2.00
76238;PMS7003;65043;48.392;-4.472;2024-02-21T08:29:14;3.75;2.00;1.50
76238;PMS7003;65043;48.392;-4.472;2024-02-21T08:31:42;4.00;2.00;2.00
76238;PMS7003;65043;48.392;-4.472;2024-02-21T08:34:18;4.75;3.00;1.25
76238;PMS7003;65043;48.392;-4.472;2024-02-21T08:37:01;2.00;2.00;2.00
76238;PMS7003;65043;48.392;-4.472;2024-02-21T08:39:27;5.75;2.00;1.00
76238;PMS7003;65043;48.392;-4.472;2024-02-21T08:42:02;4.25;4.00;1.75
76238;PMS7003;65043;48.392;-4.472;2024-02-21T08:44:33;3.00;3.00;1.00
76238;PMS7003;65043;48.392;-4.472;2024-02-21T08:54:16;5.00;4.75;3.00
76238;PMS7003;65043;48.392;-4.472;2024-02-21T09:13:06;2.50;2.50;1.00
76238;PMS7003;65043;48.392;-4.472;2024-02-21T09:18:26;6.25;3.25;2.00
76238;PMS7003;65043;48.392;-4.472;2024-02-21T09:30:55;7.00;4.50;2.25
76238;PMS7003;65043;48.392;-4.472;2024-02-21T09:33:37;6.00;5.50;3.25
76238;PMS7003;65043;48.392;-4.472;2024-02-21T09:36:06;31.50;24.25;16.00
76238;PMS7003;65043;48.392;-4.472;2024-02-21T09:38:32;80.25;62.00;35.50
76238;PMS7003;65043;48.392;-4.472;2024-02-21T09:41:04;43.50;37.75;22.75
76238;PMS7003;65043;48.392;-4.472;2024-02-21T09:46:44;9.75;8.75;5.25
76238;PMS7003;65043;48.392;-4.472;2024-02-21T09:49:36;8.25;7.25;3.50
76238;PMS7003;65043;48.392;-4.472;2024-02-21T09:52:05;11.75;7.75;3.25
76238;PMS7003;65043;48.392;-4.472;2024-02-21T09:54:34;10.75;4.75;2.50
76238;PMS7003;65043;48.392;-4.472;2024-02-21T09:57:10;12.75;5.25;2.75
76238;PMS7003;65043;48.392;-4.472;2024-02-21T09:59:36;6.00;4.75;3.00
76238;PMS7003;65043;48.392;-4.472;2024-02-21T10:02:05;10.75;7.00;4.00
76238;PMS7003;65043;48.392;-4.472;2024-02-21T10:04:39;6.75;5.75;3.75
76238;PMS7003;65043;48.392;-4.472;2024-02-21T10:07:13;9.00;5.75;2.00
76238;PMS7003;65043;48.392;-4.472;2024-02-21T10:09:49;14.50;8.75;5.00
76238;PMS7003;65043;48.392;-4.472;2024-02-21T10:12:49;11.75;7.50;4.00
76238;PMS7003;65043;48.392;-4.472;2024-02-21T10:15:21;10.75;7.00;4.00
76238;PMS7003;65043;48.392;-4.472;2024-02-21T10:17:58;10.75;5.75;3.00
76238;PMS7003;65043;48.392;-4.472;2024-02-21T10:20:30;11.00;7.00;3.00
76238;PMS7003;65043;48.392;-4.472;2024-02-21T10:26:47;7.00;4.50;2.00
76238;PMS7003;65043;48.392;-4.472;2024-02-21T10:29:59;10.25;6.50;3.00
76238;PMS7003;65043;48.392;-4.472;2024-02-21T10:32:55;5.50;5.00;3.00
76238;PMS7003;65043;48.392;-4.472;2024-02-21T11:00:01;13.00;5.25;2.25
76238;PMS7003;65043;48.392;-4.472;2024-02-21T11:12:04;8.25;5.00;2.00
76238;PMS7003;65043;48.392;-4.472;2024-02-21T11:21:40;6.00;3.00;2.00
76238;PMS7003;65043;48.392;-4.472;2024-02-21T11:38:59;34.50;26.00;14.25
76238;PMS7003;65043;48.392;-4.472;2024-02-21T11:48:15;13.75;9.00;6.00
76238;PMS7003;65043;48.392;-4.472;2024-02-21T11:51:03;11.00;7.50;3.75
76238;PMS7003;65043;48.392;-4.472;2024-02-21T12:04:06;7.50;5.50;3.25
76238;PMS7003;65043;48.392;-4.472;2024-02-21T12:07:08;7.75;3.50;2.00
76238;PMS7003;65043;48.392;-4.472;2024-02-21T13:10:19;67.75;50.50;32.25
76238;PMS7003;65043;48.392;-4.472;2024-02-21T13:13:02;23.75;20.00;9.25
76238;PMS7003;65043;48.392;-4.472;2024-02-21T13:22:12;11.00;6.50;4.00
76238;PMS7003;65043;48.392;-4.472;2024-02-21T13:24:38;6.50;4.25;2.00
76238;PMS7003;65043;48.392;-4.472;2024-02-21T13:27:06;11.50;8.00;3.00
76238;PMS7003;65043;48.392;-4.472;2024-02-21T13:29:41;5.50;4.25;1.00
76238;PMS7003;65043;48.392;-4.472;2024-02-21T13:32:07;6.00;3.00;1.00
76238;PMS7003;65043;48.392;-4.472;2024-02-21T13:34:33;5.75;3.00;1.00
76238;PMS7003;65043;48.392;-4.472;2024-02-21T13:42:51;6.00;3.75;1.25
76238;PMS7003;65043;48.392;-4.472;2024-02-21T13:46:06;7.00;4.75;1.00
76238;PMS7003;65043;48.392;-4.472;2024-02-21T13:49:04;5.00;3.00;1.00
76238;PMS7003;65043;48.392;-4.472;2024-02-21T13:51:50;5.75;3.00;1.00
76238;PMS7003;65043;48.392;-4.472;2024-02-21T13:54:19;7.50;4.00;2.00
76238;PMS7003;65043;48.392;-4.472;2024-02-21T14:31:10;3.00;2.00;0.00
76238;PMS7003;65043;48.392;-4.472;2024-02-21T14:50:13;45.50;34.50;20.00
76238;PMS7003;65043;48.392;-4.472;2024-02-21T14:52:38;72.75;56.75;33.50
76238;PMS7003;65043;48.392;-4.472;2024-02-21T14:55:04;60.00;46.00;28.25
76238;PMS7003;65043;48.392;-4.472;2024-02-21T14:57:30;54.25;41.25;24.50
76238;PMS7003;65043;48.392;-4.472;2024-02-21T15:06:28;7.50;5.50;2.00
76238;PMS7003;65043;48.392;-4.472;2024-02-21T15:08:59;7.75;3.00;1.50
76238;PMS7003;65043;48.392;-4.472;2024-02-21T16:14:44;2.25;1.00;1.00
76238;PMS7003;65043;48.392;-4.472;2024-02-21T16:17:35;2.00;2.00;1.00
76238;PMS7003;65043;48.392;-4.472;2024-02-21T16:20:01;2.00;1.00;1.00
76238;PMS7003;65043;48.392;-4.472;2024-02-21T16:22:28;5.25;3.25;1.00
76238;PMS7003;65043;48.392;-4.472;2024-02-21T16:44:54;66.50;52.75;33.00
76238;PMS7003;65043;48.392;-4.472;2024-02-21T16:53:04;54.50;41.25;26.00
76238;PMS7003;65043;48.392;-4.472;2024-02-21T16:55:30;6.25;6.25;5.25
76238;PMS7003;65043;48.392;-4.472;2024-02-21T17:40:00;5.25;3.50;1.75
76238;PMS7003;65043;48.392;-4.472;2024-02-21T17:43:16;3.50;3.00;1.00
76238;PMS7003;65043;48.392;-4.472;2024-02-21T17:45:45;4.00;2.00;1.00
76238;PMS7003;65043;48.392;-4.472;2024-02-21T17:48:13;3.25;2.00;1.00
76238;PMS7003;65043;48.392;-4.472;2024-02-21T17:50:49;3.25;2.75;1.00
76238;PMS7003;65043;48.392;-4.472;2024-02-21T18:09:11;3.75;3.75;2.25
76238;PMS7003;65043;48.392;-4.472;2024-02-21T18:11:47;6.00;6.00;3.00
76238;PMS7003;65043;48.392;-4.472;2024-02-21T18:14:23;6.75;4.25;3.00
76238;PMS7003;65043;48.392;-4.472;2024-02-21T18:16:51;9.00;6.25;3.50
76238;PMS7003;65043;48.392;-4.472;2024-02-21T18:19:24;7.25;4.00;2.00
76238;PMS7003;65043;48.392;-4.472;2024-02-21T18:28:13;9.00;5.75;3.00
76238;PMS7003;65043;48.392;-4.472;2024-02-21T18:30:59;6.00;5.25;2.00
76238;PMS7003;65043;48.392;-4.472;2024-02-21T18:37:24;7.00;4.00;3.00
76238;PMS7003;65043;48.392;-4.472;2024-02-21T18:40:38;8.00;6.00;3.00
76238;PMS7003;65043;48.392;-4.472;2024-02-21T18:49:50;7.00;5.50;3.25
76238;PMS7003;65043;48.392;-4.472;2024-02-21T18:52:51;8.50;5.00;3.00
76238;PMS7003;65043;48.392;-4.472;2024-02-21T20:33:17;7.25;7.25;4.75
76238;PMS7003;65043;48.392;-4.472;2024-02-21T21:18:27;8.75;7.25;4.00
76238;PMS7003;65043;48.392;-4.472;2024-02-21T21:20:55;11.00;7.00;4.00
76238;PMS7003;65043;48.392;-4.472;2024-02-21T21:23:20;4.00;4.00;2.25
76238;PMS7003;65043;48.392;-4.472;2024-02-21T21:25:46;5.00;3.75;2.00
76238;PMS7003;65043;48.392;-4.472;2024-02-21T21:28:12;4.25;4.00;2.00
76238;PMS7003;65043;48.392;-4.472;2024-02-21T21:30:37;7.75;2.75;1.75
76238;PMS7003;65043;48.392;-4.472;2024-02-21T21:33:03;6.75;5.00;2.25
76238;PMS7003;65043;48.392;-4.472;2024-02-21T21:35:29;6.75;5.00;2.00
76238;PMS7003;65043;48.392;-4.472;2024-02-21T21:37:55;8.00;6.50;2.00
76238;PMS7003;65043;48.392;-4.472;2024-02-21T21:40:21;6.75;5.75;3.00
76238;PMS7003;65043;48.392;-4.472;2024-02-21T21:42:47;5.50;3.00;2.00
76238;PMS7003;65043;48.392;-4.472;2024-02-21T21:45:13;5.00;3.25;2.00
76238;PMS7003;65043;48.392;-4.472;2024-02-21T21:47:39;5.00;3.75;1.25
76238;PMS7003;65043;48.392;-4.472;2024-02-21T21:50:07;5.00;3.75;2.00
76238;PMS7003;65043;48.392;-4.472;2024-02-21T21:52:33;5.50;2.00;1.00
76238;PMS7003;65043;48.392;-4.472;2024-02-21T21:54:59;5.25;1.25;1.00
76238;PMS7003;65043;48.392;-4.472;2024-02-21T21:57:25;6.00;2.75;1.00
76238;PMS7003;65043;48.392;-4.472;2024-02-21T21:59:50;4.75;2.75;0.00
76238;PMS7003;65043;48.392;-4.472;2024-02-21T22:02:16;2.50;1.50;1.00
76238;PMS7003;65043;48.392;-4.472;2024-02-21T22:04:41;3.00;0.75;0.00
76238;PMS7003;65043;48.392;-4.472;2024-02-21T22:07:07;7.00;4.75;2.00
76238;PMS7003;65043;48.392;-4.472;2024-02-21T22:09:33;5.00;2.50;1.75
76238;PMS7003;65043;48.392;-4.472;2024-02-21T22:11:59;7.25;3.50;1.00
76238;PMS7003;65043;48.392;-4.472;2024-02-21T22:14:25;5.25;2.00;1.00
76238;PMS7003;65043;48.392;-4.472;2024-02-21T22:16:51;7.00;3.50;0.25
76238;PMS7003;65043;48.392;-4.472;2024-02-21T22:19:19;4.50;3.00;2.00
76238;PMS7003;65043;48.392;-4.472;2024-02-21T22:21:44;3.25;2.50;0.50
76238;PMS7003;65043;48.392;-4.472;2024-02-21T22:24:10;4.50;3.75;1.50
76238;PMS7003;65043;48.392;-4.472;2024-02-21T22:26:36;2.75;1.00;0.25
76238;PMS7003;65043;48.392;-4.472;2024-02-21T22:29:02;1.00;1.00;0.00
76238;PMS7003;65043;48.392;-4.472;2024-02-21T22:31:28;1.75;1.75;1.00
76238;PMS7003;65043;48.392;-4.472;2024-02-21T22:33:54;5.25;2.75;1.00
76238;PMS7003;65043;48.392;-4.472;2024-02-21T22:36:22;6.00;2.00;1.75
76238;PMS7003;65043;48.392;-4.472;2024-02-21T22:38:48;1.75;1.50;1.00
76238;PMS7003;65043;48.392;-4.472;2024-02-21T22:41:14;1.25;1.25;0.50
76238;PMS7003;65043;48.392;-4.472;2024-02-21T22:43:39;2.50;2.50;2.00
76238;PMS7003;65043;48.392;-4.472;2024-02-21T22:46:04;3.75;3.25;1.75
76238;PMS7003;65043;48.392;-4.472;2024-02-21T22:48:30;3.00;1.25;1.00
76238;PMS7003;65043;48.392;-4.472;2024-02-21T22:50:56;2.25;2.25;1.50
76238;PMS7003;65043;48.392;-4.472;2024-02-21T22:53:23;4.00;1.25;0.00
76238;PMS7003;65043;48.392;-4.472;2024-02-21T22:55:48;8.00;2.25;1.00
76238;PMS7003;65043;48.392;-4.472;2024-02-21T22:58:14;3.50;2.00;1.00
76238;PMS7003;65043;48.392;-4.472;2024-02-21T23:00:39;3.00;1.25;1.00
76238;PMS7003;65043;48.392;-4.472;2024-02-21T23:03:05;1.75;1.00;0.00
76238;PMS7003;65043;48.392;-4.472;2024-02-21T23:05:32;1.50;1.00;1.00
76238;PMS7003;65043;48.392;-4.472;2024-02-21T23:07:58;2.75;1.75;1.00
76238;PMS7003;65043;48.392;-4.472;2024-02-21T23:10:23;3.25;1.75;0.50
76238;PMS7003;65043;48.392;-4.472;2024-02-21T23:12:50;3.00;1.50;1.00
76238;PMS7003;65043;48.392;-4.472;2024-02-21T23:15:19;4.00;3.00;1.00
76238;PMS7003;65043;48.392;-4.472;2024-02-21T23:17:45;5.00;2.00;0.00
76238;PMS7003;65043;48.392;-4.472;2024-02-21T23:20:10;2.00;1.00;0.00
76238;PMS7003;65043;48.392;-4.472;2024-02-21T23:22:36;1.75;1.75;0.50
76238;PMS7003;65043;48.392;-4.472;2024-02-21T23:25:01;2.00;1.75;0.50
76238;PMS7003;65043;48.392;-4.472;2024-02-21T23:27:28;2.50;1.00;0.00
76238;PMS7003;65043;48.392;-4.472;2024-02-21T23:29:53;1.50;1.50;0.00
76238;PMS7003;65043;48.392;-4.472;2024-02-21T23:32:19;2.00;2.00;0.50
76238;PMS7003;65043;48.392;-4.472;2024-02-21T23:34:44;3.00;1.25;1.00
76238;PMS7003;65043;48.392;-4.472;2024-02-21T23:37:11;4.00;2.00;1.00
76238;PMS7003;65043;48.392;-4.472;2024-02-21T23:39:37;4.50;2.50;1.00
76238;PMS7003;65043;48.392;-4.472;2024-02-21T23:42:03;3.75;2.75;1.00
76238;PMS7003;65043;48.392;-4.472;2024-02-21T23:44:29;8.00;4.75;2.50
76238;PMS7003;65043;48.392;-4.472;2024-02-21T23:46:54;9.75;5.75;2.00
76238;PMS7003;65043;48.392;-4.472;2024-02-21T23:49:20;9.75;4.00;2.00